createdAt,value
2023-09-12T00:01:39.678Z,8.10
2023-09-12T00:04:07.554Z,8.00
2023-09-12T00:06:42.814Z,7.35
2023-09-12T00:09:10.517Z,7.32
2023-09-12T00:11:41.667Z,7.40
2023-09-12T00:14:10.781Z,8.18
2023-09-12T00:16:42.018Z,7.75
2023-09-12T00:19:09.771Z,7.60
2023-09-12T00:24:29.261Z,8.30
2023-09-12T00:26:56.955Z,9.15
2023-09-12T00:29:24.753Z,7.85
2023-09-12T00:31:52.469Z,7.30
2023-09-12T00:34:20.244Z,7.80
2023-09-12T00:36:48.271Z,8.05
2023-09-12T00:39:16.025Z,7.55
2023-09-12T00:41:45.340Z,8.50
2023-09-12T00:44:12.998Z,7.80
2023-09-12T00:46:49.136Z,7.30
2023-09-12T00:49:17.502Z,7.90
2023-09-12T00:51:46.348Z,7.22
2023-09-12T00:54:14.086Z,7.28
2023-09-12T00:56:53.143Z,8.45
2023-09-12T00:59:21.518Z,7.28
2023-09-12T01:01:49.418Z,8.02
2023-09-12T01:04:32.574Z,7.07
2023-09-12T01:07:04.710Z,7.28
2023-09-12T01:09:33.017Z,6.57
2023-09-12T01:12:03.875Z,6.97
2023-09-12T01:14:32.562Z,8.07
2023-09-12T01:17:00.748Z,7.70
2023-09-12T01:19:28.553Z,7.63
2023-09-12T01:21:56.151Z,8.48
2023-09-12T01:24:23.890Z,7.60
2023-09-12T01:26:54.930Z,7.65
2023-09-12T01:29:23.221Z,7.53
2023-09-12T01:31:51.328Z,8.30
2023-09-12T01:34:20.228Z,7.38
2023-09-12T01:39:29.632Z,7.38
2023-09-12T01:41:58.321Z,8.98
2023-09-12T01:44:26.976Z,8.43
2023-09-12T01:46:55.675Z,7.38
2023-09-12T01:49:24.501Z,7.40
2023-09-12T01:51:54.395Z,7.68
2023-09-12T01:54:22.872Z,7.60
2023-09-12T01:56:58.095Z,8.20
2023-09-12T01:59:25.801Z,8.25
2023-09-12T02:01:55.494Z,7.72
2023-09-12T02:04:23.227Z,7.50
2023-09-12T02:07:00.502Z,6.90
2023-09-12T02:09:28.216Z,7.07
2023-09-12T02:11:56.625Z,7.28
2023-09-12T02:14:24.404Z,7.40
2023-09-12T02:17:00.135Z,8.20
2023-09-12T02:19:28.381Z,8.23
2023-09-12T02:21:58.596Z,8.68
2023-09-12T02:24:26.417Z,8.45
2023-09-12T02:27:02.256Z,8.07
2023-09-12T02:29:29.959Z,7.22
2023-09-12T02:31:58.575Z,8.05
2023-09-12T02:34:26.349Z,8.07
2023-09-12T02:36:54.242Z,8.20
2023-09-12T02:39:21.872Z,8.00
2023-09-12T02:41:49.532Z,8.55
2023-09-12T02:44:17.515Z,8.40
2023-09-12T02:46:45.168Z,7.78
2023-09-12T02:49:13.473Z,8.18
2023-09-12T02:51:41.279Z,8.40
2023-09-12T02:54:08.986Z,7.78
2023-09-12T02:56:36.647Z,7.80
2023-09-12T02:59:06.046Z,8.38
2023-09-12T03:01:33.721Z,8.45
2023-09-12T03:04:03.628Z,8.48
2023-09-12T03:06:31.940Z,9.10
2023-09-12T03:09:07.614Z,8.00
2023-09-12T03:11:35.290Z,8.32
2023-09-12T03:14:05.437Z,7.93
2023-09-12T03:16:33.436Z,8.00
2023-09-12T03:19:06.791Z,8.20
2023-09-12T03:21:34.693Z,8.90
2023-09-12T03:24:06.456Z,8.80
2023-09-12T03:26:35.351Z,8.02
2023-09-12T03:29:07.442Z,8.32
2023-09-12T03:31:37.029Z,8.85
2023-09-12T03:34:08.541Z,8.30
2023-09-12T03:36:36.901Z,8.88
2023-09-12T03:39:07.089Z,8.25
2023-09-12T03:41:35.510Z,8.43
2023-09-12T03:44:03.771Z,8.88
2023-09-12T03:46:31.432Z,8.38
2023-09-12T03:48:59.024Z,9.27
2023-09-12T03:51:26.845Z,8.35
2023-09-12T03:53:54.567Z,9.48
2023-09-12T03:56:22.267Z,8.52
2023-09-12T03:58:49.840Z,9.02
2023-09-12T04:01:17.592Z,9.18
2023-09-12T04:03:48.903Z,9.05
2023-09-12T04:06:16.841Z,8.60
2023-09-12T04:08:44.685Z,8.68
2023-09-12T04:11:12.545Z,7.95
2023-09-12T04:13:40.109Z,8.45
2023-09-12T04:16:15.628Z,8.13
2023-09-12T04:18:43.897Z,8.10
2023-09-12T04:21:11.750Z,8.55
2023-09-12T04:23:39.633Z,9.07
2023-09-12T04:26:07.283Z,8.63
2023-09-12T04:28:35.284Z,7.57
2023-09-12T04:31:04.354Z,9.10
2023-09-12T04:33:32.307Z,8.48
2023-09-12T04:36:01.781Z,8.30
2023-09-12T04:38:29.587Z,8.35
2023-09-12T04:40:58.885Z,8.63
2023-09-12T04:43:26.784Z,8.82
2023-09-12T04:45:54.777Z,9.57
2023-09-12T04:48:22.853Z,8.50
2023-09-12T04:50:50.616Z,8.40
2023-09-12T04:53:18.742Z,7.85
2023-09-12T04:55:46.534Z,9.27
2023-09-12T04:58:18.320Z,9.68
2023-09-12T05:00:47.350Z,8.68
2023-09-12T05:03:18.946Z,9.63
2023-09-12T05:05:53.128Z,8.68
2023-09-12T05:08:21.295Z,10.02
2023-09-12T05:10:49.256Z,8.65
2023-09-12T05:13:20.989Z,8.60
2023-09-12T05:15:48.891Z,8.45
2023-09-12T05:18:22.770Z,9.10
2023-09-12T05:20:50.920Z,9.02
2023-09-12T05:23:22.422Z,9.02
2023-09-12T05:25:50.121Z,8.82
2023-09-12T05:28:25.433Z,9.85
2023-09-12T05:30:54.488Z,9.10
2023-09-12T05:33:23.072Z,8.43
2023-09-12T05:35:51.146Z,9.18
2023-09-12T05:38:26.557Z,9.00
2023-09-12T05:40:54.457Z,9.63
2023-09-12T05:43:23.836Z,10.00
2023-09-12T05:45:52.056Z,9.45
2023-09-12T05:48:27.194Z,10.32
2023-09-12T05:50:55.055Z,9.25
2023-09-12T05:53:26.431Z,9.50
2023-09-12T05:55:54.156Z,9.52
2023-09-12T05:58:31.384Z,8.90
2023-09-12T06:00:59.797Z,9.57
2023-09-12T06:03:27.808Z,9.60
2023-09-12T06:05:55.688Z,9.90
2023-09-12T06:08:27.398Z,9.07
2023-09-12T06:10:56.303Z,9.43
2023-09-12T06:13:27.823Z,10.48
2023-09-12T06:15:55.573Z,9.68
2023-09-12T06:18:28.856Z,9.73
2023-09-12T06:20:56.701Z,12.40
2023-09-12T06:23:29.648Z,9.35
2023-09-12T06:25:57.586Z,10.55
2023-09-12T06:28:31.184Z,9.63
2023-09-12T06:30:59.270Z,10.40
2023-09-12T06:33:31.098Z,10.57
2023-09-12T06:35:59.010Z,10.23
2023-09-12T06:38:33.823Z,10.88
2023-09-12T06:41:01.649Z,12.23
2023-09-12T06:43:31.947Z,10.43
2023-09-12T06:46:00.033Z,10.45
2023-09-12T06:48:34.915Z,11.40
2023-09-12T06:51:12.313Z,10.90
2023-09-12T06:53:41.802Z,10.57
2023-09-12T06:56:09.861Z,11.05
2023-09-12T06:58:37.714Z,10.68
2023-09-12T07:01:08.992Z,9.82
2023-09-12T07:03:37.906Z,9.68
2023-09-12T07:06:06.538Z,9.38
2023-09-12T07:08:37.047Z,10.30
2023-09-12T07:11:07.401Z,10.00
2023-09-12T07:13:37.793Z,9.30
2023-09-12T07:16:05.912Z,10.23
2023-09-12T07:18:36.466Z,10.32
2023-09-12T07:21:05.241Z,10.13
2023-09-12T07:23:41.450Z,9.13
2023-09-12T07:26:14.044Z,9.75
2023-09-12T07:28:41.836Z,11.20
2023-09-12T07:31:09.718Z,10.75
2023-09-12T07:33:38.137Z,10.20
2023-09-12T07:36:05.957Z,9.63
2023-09-12T07:38:39.825Z,8.95
2023-09-12T07:41:07.659Z,9.82
2023-09-12T07:43:43.356Z,9.38
2023-09-12T07:46:11.239Z,9.45
2023-09-12T07:48:40.770Z,9.57
2023-09-12T07:51:16.551Z,9.50
2023-09-12T07:53:44.704Z,10.13
2023-09-12T07:56:12.714Z,8.93
2023-09-12T07:58:41.481Z,9.82
2023-09-12T08:01:09.709Z,9.95
2023-09-12T08:03:42.514Z,8.50
2023-09-12T08:06:11.089Z,10.13
2023-09-12T08:08:46.506Z,9.02
2023-09-12T08:11:14.523Z,8.98
2023-09-12T08:13:44.046Z,8.55
2023-09-12T08:16:12.053Z,9.03
2023-09-12T08:18:45.314Z,9.25
2023-09-12T08:21:13.255Z,7.93
2023-09-12T08:23:44.690Z,8.77
2023-09-12T08:26:12.980Z,8.93
2023-09-12T08:28:48.642Z,8.30
2023-09-12T08:31:16.953Z,9.60
2023-09-12T08:33:46.683Z,8.45
2023-09-12T08:36:14.771Z,7.93
2023-09-12T08:38:49.860Z,8.23
2023-09-12T08:41:17.860Z,7.28
2023-09-12T08:43:47.186Z,7.35
2023-09-12T08:46:16.197Z,7.75
2023-09-12T08:48:51.962Z,7.28
2023-09-12T08:51:20.049Z,7.63
2023-09-12T08:53:50.172Z,7.65
2023-09-12T08:56:18.315Z,7.57
2023-09-12T08:58:49.204Z,8.43
2023-09-12T09:01:18.317Z,7.45
2023-09-12T09:03:49.797Z,6.63
2023-09-12T09:06:18.135Z,6.88
2023-09-12T09:08:50.968Z,6.10
2023-09-12T09:11:19.254Z,6.47
2023-09-12T09:13:51.841Z,7.03
2023-09-12T09:16:22.318Z,6.68
2023-09-12T09:18:53.493Z,6.88
2023-09-12T09:21:23.408Z,6.25
2023-09-12T09:23:55.315Z,6.05
2023-09-12T09:26:23.682Z,5.53
2023-09-12T09:29:08.191Z,5.55
2023-09-12T09:31:36.384Z,5.30
2023-09-12T09:34:05.308Z,5.43
2023-09-12T09:36:34.463Z,5.22
2023-09-12T09:39:05.929Z,5.40
2023-09-12T09:41:34.191Z,5.95
2023-09-12T09:44:02.292Z,5.15
2023-09-12T09:46:30.031Z,5.28
2023-09-12T09:49:00.093Z,5.22
2023-09-12T09:51:28.334Z,5.60
2023-09-12T09:53:59.290Z,5.20
2023-09-12T09:56:27.369Z,5.28
2023-09-12T09:58:56.828Z,4.07
2023-09-12T10:01:32.063Z,3.90
2023-09-12T10:04:01.377Z,4.65
2023-09-12T10:06:36.907Z,4.55
2023-09-12T10:09:07.978Z,4.32
2023-09-12T10:11:36.719Z,4.57
2023-09-12T10:14:05.190Z,4.18
2023-09-12T10:16:34.546Z,11.43
2023-09-12T10:19:02.511Z,4.50
2023-09-12T10:21:32.689Z,4.70
2023-09-12T10:24:02.232Z,5.68
2023-09-12T10:26:32.534Z,5.70
2023-09-12T10:29:01.851Z,3.97
2023-09-12T10:31:29.880Z,5.57
2023-09-12T10:34:01.478Z,4.53
2023-09-12T10:36:30.693Z,4.63
2023-09-12T10:39:03.091Z,4.13
2023-09-12T10:41:31.519Z,4.10
2023-09-12T10:44:03.174Z,4.35
2023-09-12T10:46:31.116Z,4.35
2023-09-12T10:49:06.161Z,4.32
2023-09-12T10:51:34.054Z,4.07
2023-09-12T10:54:04.334Z,4.50
2023-09-12T10:56:33.613Z,3.78
2023-09-12T10:59:13.885Z,4.07
2023-09-12T11:01:43.516Z,4.40
2023-09-12T11:04:20.605Z,4.10
2023-09-12T11:06:49.132Z,3.85
2023-09-12T11:09:19.572Z,3.75
2023-09-12T11:11:48.268Z,3.75
2023-09-12T11:14:16.925Z,4.15
2023-09-12T11:16:45.889Z,4.03
2023-09-12T11:19:17.292Z,4.43
2023-09-12T11:21:45.731Z,3.60
2023-09-12T11:24:14.210Z,4.35
2023-09-12T11:26:55.226Z,4.35
2023-09-12T11:29:24.179Z,4.28
2023-09-12T11:31:58.889Z,4.80
2023-09-12T11:34:30.725Z,4.38
2023-09-12T11:37:00.830Z,4.13
2023-09-12T11:39:32.741Z,4.25
2023-09-12T11:42:01.184Z,4.85
2023-09-12T11:44:29.242Z,4.53
2023-09-12T11:46:57.037Z,4.70
2023-09-12T11:49:24.866Z,4.20
2023-09-12T11:51:54.339Z,4.40
2023-09-12T11:54:26.065Z,4.07
2023-09-12T11:57:00.508Z,4.28
2023-09-12T11:59:28.696Z,4.03
2023-09-12T12:01:57.083Z,4.13
2023-09-12T12:04:26.679Z,4.00
2023-09-12T12:06:54.633Z,3.53
2023-09-12T12:09:22.612Z,4.20
2023-09-12T12:11:51.898Z,3.70
2023-09-12T12:14:20.772Z,4.05
2023-09-12T12:16:48.675Z,3.83
2023-09-12T12:19:16.478Z,4.72
2023-09-12T12:21:44.935Z,4.20
2023-09-12T12:24:16.089Z,3.83
2023-09-12T12:26:47.042Z,4.43
2023-09-12T12:29:15.940Z,4.03
2023-09-12T12:31:43.836Z,4.50
2023-09-12T12:34:46.705Z,4.68
2023-09-12T12:36:59.675Z,3.97
2023-09-12T12:39:27.787Z,4.03
2023-09-12T12:41:55.798Z,4.82
2023-09-12T12:44:23.860Z,4.63
2023-09-12T12:46:54.976Z,4.68
2023-09-12T12:49:24.222Z,4.68
2023-09-12T12:51:52.116Z,4.00
2023-09-12T12:54:24.630Z,3.80
2023-09-12T12:56:52.479Z,3.92
2023-09-12T12:59:20.131Z,4.35
2023-09-12T13:01:48.802Z,4.07
2023-09-12T13:04:21.377Z,3.70
2023-09-12T13:06:49.036Z,3.90
2023-09-12T13:09:19.802Z,4.05
2023-09-12T13:11:47.753Z,4.45
2023-09-12T13:14:15.555Z,4.10
2023-09-12T13:16:43.265Z,4.15
2023-09-12T13:19:13.700Z,3.92
2023-09-12T13:21:42.031Z,3.92
2023-09-12T13:24:09.659Z,4.20
2023-09-12T13:26:37.510Z,3.92
2023-09-12T13:29:05.155Z,4.03
2023-09-12T13:31:33.269Z,4.50
2023-09-12T13:34:01.219Z,4.68
2023-09-12T13:36:29.079Z,3.95
2023-09-12T13:38:57.028Z,4.35
2023-09-12T13:41:26.489Z,4.65
2023-09-12T13:43:54.423Z,3.88
2023-09-12T13:46:23.994Z,4.07
2023-09-12T13:48:51.769Z,3.45
2023-09-12T13:51:19.640Z,3.72
2023-09-12T13:53:47.561Z,4.05
2023-09-12T13:56:15.384Z,3.92
2023-09-12T13:58:45.636Z,4.40
2023-09-12T14:01:32.398Z,3.75
2023-09-12T14:04:03.942Z,3.88
2023-09-12T14:06:32.682Z,4.25
2023-09-12T14:09:00.936Z,4.40
2023-09-12T14:11:35.031Z,4.45
2023-09-12T14:14:15.266Z,3.90
2023-09-12T14:16:47.970Z,5.43
2023-09-12T14:19:16.961Z,4.20
2023-09-12T14:21:49.649Z,4.00
2023-09-12T14:24:19.182Z,3.80
2023-09-12T14:26:49.899Z,4.03
2023-09-12T14:29:17.849Z,4.20
2023-09-12T14:31:51.307Z,4.80
2023-09-12T14:34:19.296Z,3.88
2023-09-12T14:36:47.324Z,3.95
2023-09-12T14:39:16.133Z,4.40
2023-09-12T14:41:45.170Z,4.10
2023-09-12T14:44:13.131Z,4.28
2023-09-12T14:46:41.108Z,4.35
2023-09-12T14:49:11.783Z,4.20
2023-09-12T14:51:39.752Z,4.20
2023-09-12T14:54:07.750Z,4.72
2023-09-12T14:56:38.485Z,3.88
2023-09-12T14:59:07.661Z,4.10
2023-09-12T15:04:03.999Z,4.80
2023-09-12T15:06:38.240Z,4.30
2023-09-12T15:09:06.884Z,4.32
2023-09-12T15:11:37.142Z,4.43
2023-09-12T15:14:05.103Z,4.00
2023-09-12T15:16:39.411Z,3.95
2023-09-12T15:19:07.376Z,4.32
2023-09-12T15:21:39.071Z,4.65
2023-09-12T15:24:09.007Z,4.47
2023-09-12T15:26:40.592Z,4.03
2023-09-12T15:29:09.371Z,3.83
2023-09-12T15:31:41.157Z,4.07
2023-09-12T15:34:09.150Z,4.45
2023-09-12T15:36:44.626Z,4.28
2023-09-12T15:39:12.321Z,4.93
2023-09-12T15:41:42.578Z,4.22
2023-09-12T15:44:16.221Z,4.70
2023-09-12T15:46:44.578Z,4.90
2023-09-12T15:49:12.551Z,4.38
2023-09-12T15:51:42.714Z,4.45
2023-09-12T15:54:10.572Z,4.63
2023-09-12T15:56:46.340Z,4.65
2023-09-12T15:59:13.932Z,4.30
2023-09-12T16:01:45.528Z,4.75
2023-09-12T16:04:13.508Z,4.93
2023-09-12T16:06:41.363Z,4.45
2023-09-12T16:09:09.158Z,4.90
2023-09-12T16:11:37.124Z,4.85
2023-09-12T16:14:05.121Z,4.82
2023-09-12T16:16:35.709Z,4.63
2023-09-12T16:19:07.016Z,5.07
2023-09-12T16:21:36.267Z,5.00
2023-09-12T16:24:04.020Z,4.97
2023-09-12T16:26:31.799Z,4.60
2023-09-12T16:28:59.499Z,4.45
2023-09-12T16:31:27.521Z,3.83
2023-09-12T16:33:55.418Z,3.08
2023-09-12T16:36:23.463Z,2.90
2023-09-12T16:38:51.923Z,3.00
2023-09-12T16:41:19.660Z,3.13
2023-09-12T16:46:36.945Z,3.58
2023-09-12T16:49:05.438Z,2.88
2023-09-12T16:51:37.217Z,3.60
2023-09-12T16:54:05.995Z,3.80
2023-09-12T16:56:37.538Z,3.60
2023-09-12T16:59:05.313Z,3.58
2023-09-12T17:01:33.106Z,3.65
2023-09-12T17:04:02.904Z,4.68
2023-09-12T17:06:31.774Z,3.42
2023-09-12T17:09:04.284Z,3.92
2023-09-12T17:11:32.268Z,3.72
2023-09-12T17:13:59.935Z,4.40
2023-09-12T17:16:28.224Z,3.75
2023-09-12T17:19:03.327Z,3.72
2023-09-12T17:21:31.231Z,4.13
2023-09-12T17:23:58.988Z,3.88
2023-09-12T17:26:26.776Z,4.03
2023-09-12T17:28:57.074Z,4.00
2023-09-12T17:33:52.706Z,4.65
2023-09-12T17:36:20.596Z,4.55
2023-09-12T17:38:54.285Z,4.50
2023-09-12T17:41:22.061Z,4.60
2023-09-12T17:43:49.816Z,4.53
2023-09-12T17:46:17.842Z,4.20
2023-09-12T17:48:51.745Z,4.45
2023-09-12T17:51:19.665Z,5.30
2023-09-12T17:53:47.576Z,4.57
2023-09-12T17:56:16.550Z,5.30
2023-09-12T17:58:47.743Z,6.53
2023-09-12T18:01:15.573Z,4.68
2023-09-12T18:03:43.784Z,5.10
2023-09-12T18:06:12.264Z,4.63
2023-09-12T18:08:44.509Z,4.97
2023-09-12T18:11:12.379Z,5.05
2023-09-12T18:13:40.390Z,5.18
2023-09-12T18:16:08.469Z,4.28
2023-09-12T18:18:43.711Z,4.38
2023-09-12T18:21:11.593Z,4.55
2023-09-12T18:23:40.635Z,5.25
2023-09-12T18:26:08.662Z,4.43
2023-09-12T18:28:40.059Z,5.05
2023-09-12T18:31:08.936Z,5.15
2023-09-12T18:33:37.394Z,4.93
2023-09-12T18:36:06.431Z,5.45
2023-09-12T18:38:36.813Z,5.53
2023-09-12T18:43:35.449Z,6.30
2023-09-12T18:46:05.156Z,6.47
2023-09-12T18:48:33.888Z,5.07
2023-09-12T18:51:02.014Z,5.60
2023-09-12T18:53:29.786Z,4.85
2023-09-12T18:56:02.578Z,5.10
2023-09-12T18:58:31.577Z,5.55
2023-09-12T19:01:00.257Z,5.63
2023-09-12T19:03:29.031Z,5.45
2023-09-12T19:05:59.931Z,5.50
2023-09-12T19:08:27.595Z,5.72
2023-09-12T19:11:02.963Z,5.95
2023-09-12T19:13:30.711Z,6.40
2023-09-12T19:16:03.918Z,5.95
2023-09-12T19:18:32.419Z,6.32
2023-09-12T19:21:03.603Z,6.07
2023-09-12T19:23:31.373Z,5.35
2023-09-12T19:26:06.403Z,5.90
2023-09-12T19:28:34.099Z,6.00
2023-09-12T19:31:01.957Z,6.25
2023-09-12T19:33:29.824Z,5.68
2023-09-12T19:36:00.057Z,6.30
2023-09-12T19:38:27.831Z,6.20
2023-09-12T19:41:03.156Z,5.40
2023-09-12T19:43:31.220Z,5.72
2023-09-12T19:46:07.150Z,5.53
2023-09-12T19:48:35.573Z,6.32
2023-09-12T19:51:08.091Z,6.07
2023-09-12T19:53:35.953Z,6.25
2023-09-12T19:56:09.479Z,6.53
2023-09-12T19:58:38.377Z,5.55
2023-09-12T20:01:10.701Z,6.20
2023-09-12T20:03:38.708Z,5.65
2023-09-12T20:06:06.582Z,6.22
2023-09-12T20:08:35.476Z,6.03
2023-09-12T20:11:15.951Z,5.30
2023-09-12T20:13:43.930Z,5.53
2023-09-12T20:16:16.917Z,5.53
2023-09-12T20:18:49.644Z,5.88
2023-09-12T20:21:17.506Z,5.45
2023-09-12T20:23:45.431Z,4.88
2023-09-12T20:26:13.722Z,6.57
2023-09-12T20:28:48.633Z,5.50
2023-09-12T20:31:16.457Z,5.30
2023-09-12T20:33:45.676Z,5.53
2023-09-12T20:36:14.405Z,5.60
2023-09-12T20:38:46.605Z,5.47
2023-09-12T20:41:14.370Z,5.53
2023-09-12T20:43:42.274Z,5.22
2023-09-12T20:46:11.442Z,7.95
2023-09-12T20:48:42.655Z,10.45
2023-09-12T20:51:10.810Z,10.80
2023-09-12T20:53:42.302Z,11.65
2023-09-12T20:56:10.245Z,9.82
2023-09-12T20:58:38.188Z,8.82
2023-09-12T21:01:06.559Z,7.68
2023-09-12T21:03:34.556Z,5.88
2023-09-12T21:06:02.467Z,4.93
2023-09-12T21:08:36.021Z,5.15
2023-09-12T21:11:03.775Z,5.30
2023-09-12T21:13:31.507Z,4.97
2023-09-12T21:15:59.358Z,4.65
2023-09-12T21:18:32.301Z,5.60
2023-09-12T21:21:00.145Z,5.38
2023-09-12T21:23:27.882Z,4.35
2023-09-12T21:25:55.752Z,5.10
2023-09-12T21:28:23.578Z,4.88
2023-09-12T21:30:51.672Z,4.47
2023-09-12T21:33:20.364Z,4.30
2023-09-12T21:35:48.116Z,4.30
2023-09-12T21:38:16.057Z,3.25
2023-09-12T21:40:43.881Z,3.55
2023-09-12T21:43:11.686Z,3.50
2023-09-12T21:45:39.650Z,3.03
2023-09-12T21:48:07.918Z,3.33
2023-09-12T21:50:37.555Z,2.70
2023-09-12T21:53:05.936Z,3.33
2023-09-12T21:55:36.613Z,3.45
2023-09-12T22:00:35.361Z,3.63
2023-09-12T22:03:05.455Z,3.47
2023-09-12T22:05:36.365Z,3.72
2023-09-12T22:08:04.213Z,3.38
2023-09-12T22:10:31.931Z,4.28
2023-09-12T22:12:59.658Z,3.78
2023-09-12T22:15:35.345Z,3.67
2023-09-12T22:18:03.370Z,4.32
2023-09-12T22:20:33.422Z,4.10
2023-09-12T22:23:01.141Z,3.95
2023-09-12T22:25:36.325Z,4.20
2023-09-12T22:28:04.744Z,3.55
2023-09-12T22:30:34.430Z,4.07
2023-09-12T22:33:02.254Z,4.82
2023-09-12T22:35:35.496Z,3.83
2023-09-12T22:38:03.396Z,4.25
2023-09-12T22:40:34.923Z,3.90
2023-09-12T22:43:02.741Z,4.53
2023-09-12T22:45:39.063Z,5.00
2023-09-12T22:48:07.164Z,4.10
2023-09-12T22:50:36.474Z,4.70
2023-09-12T22:53:05.269Z,3.72
2023-09-12T22:55:42.592Z,3.80
2023-09-12T22:58:10.599Z,2.90
2023-09-12T23:00:38.657Z,3.72
2023-09-12T23:03:06.933Z,3.83
2023-09-12T23:05:38.037Z,3.53
2023-09-12T23:08:05.960Z,3.13
2023-09-12T23:10:41.063Z,3.47
2023-09-12T23:13:08.966Z,5.55
2023-09-12T23:15:40.609Z,4.63
2023-09-12T23:18:08.357Z,3.33
2023-09-12T23:20:42.957Z,4.32
2023-09-12T23:23:10.734Z,4.45
2023-09-12T23:25:44.240Z,4.30
2023-09-12T23:28:14.883Z,4.47
2023-09-12T23:33:10.227Z,3.72
2023-09-12T23:35:44.346Z,3.40
2023-09-12T23:38:12.469Z,3.80
2023-09-12T23:40:42.689Z,3.83
2023-09-12T23:43:10.509Z,2.90
2023-09-12T23:45:45.622Z,2.30
2023-09-12T23:48:14.947Z,2.33
2023-09-12T23:50:43.693Z,2.03
2023-09-12T23:53:11.323Z,2.45
2023-09-12T23:55:38.982Z,2.72
2023-09-12T23:58:06.818Z,2.85
